createdAt,value
2018-12-08T00:04:13.737Z,5.50
2018-12-08T00:09:20.170Z,5.60
2018-12-08T00:14:24.747Z,5.50
2018-12-08T00:19:28.876Z,5.50
2018-12-08T00:24:33.791Z,5.60
2018-12-08T00:29:38.245Z,5.60
2018-12-08T00:34:42.859Z,5.60
2018-12-08T00:39:46.941Z,5.60
2018-12-08T00:44:50.973Z,5.70
2018-12-08T00:49:54.986Z,5.60
2018-12-08T00:54:59.034Z,5.50
2018-12-08T01:00:03.775Z,5.40
2018-12-08T01:05:08.317Z,5.30
2018-12-08T01:10:12.851Z,5.10
2018-12-08T01:15:17.170Z,5.00
2018-12-08T01:20:21.254Z,4.80
2018-12-08T01:25:25.982Z,4.80
2018-12-08T01:30:30.028Z,4.80
2018-12-08T01:35:34.077Z,4.70
2018-12-08T01:40:38.128Z,4.70
2018-12-08T01:45:42.173Z,4.70
2018-12-08T01:50:46.582Z,4.70
2018-12-08T01:55:50.625Z,4.80
2018-12-08T02:00:54.932Z,4.80
2018-12-08T02:05:58.963Z,5.00
2018-12-08T02:11:03.013Z,5.10
2018-12-08T02:16:07.086Z,5.20
2018-12-08T02:21:11.098Z,5.30
2018-12-08T02:26:15.171Z,5.40
2018-12-08T02:31:19.186Z,5.40
2018-12-08T02:36:23.210Z,5.30
2018-12-08T02:41:27.689Z,5.40
2018-12-08T02:46:31.777Z,5.40
2018-12-08T02:51:35.828Z,5.40
2018-12-08T02:56:39.845Z,5.50
2018-12-08T03:01:43.865Z,5.40
2018-12-08T03:06:47.922Z,5.40
2018-12-08T03:11:51.970Z,5.50
2018-12-08T03:16:56.079Z,5.50
2018-12-08T03:22:00.150Z,5.50
2018-12-08T03:27:04.277Z,5.60
2018-12-08T03:32:08.335Z,5.60
2018-12-08T03:37:12.349Z,5.60
2018-12-08T03:42:16.394Z,5.60
2018-12-08T03:47:20.435Z,5.70
2018-12-08T03:52:24.465Z,5.70
2018-12-08T03:57:28.538Z,5.70
2018-12-08T04:02:32.621Z,5.80
2018-12-08T04:07:36.824Z,5.90
2018-12-08T04:12:41.066Z,5.80
2018-12-08T04:17:46.419Z,5.90
2018-12-08T04:22:50.784Z,6.10
2018-12-08T04:27:54.851Z,6.20
2018-12-08T04:32:58.905Z,6.20
2018-12-08T04:38:03.032Z,6.30
2018-12-08T04:43:07.140Z,6.30
2018-12-08T04:48:11.189Z,6.20
2018-12-08T04:53:15.219Z,6.20
2018-12-08T04:58:19.241Z,6.20
2018-12-08T05:03:23.287Z,6.10
2018-12-08T05:08:27.574Z,6.10
2018-12-08T05:13:31.623Z,6.10
2018-12-08T05:18:35.645Z,6.00
2018-12-08T05:23:39.675Z,6.00
2018-12-08T05:28:43.778Z,6.00
2018-12-08T05:33:47.812Z,6.10
2018-12-08T05:38:51.859Z,6.10
2018-12-08T05:43:55.997Z,6.10
2018-12-08T05:49:00.026Z,6.10
2018-12-08T05:54:04.501Z,6.10
2018-12-08T05:59:08.531Z,6.20
2018-12-08T06:04:12.594Z,6.20
2018-12-08T06:09:22.059Z,6.10
2018-12-08T06:14:26.107Z,6.10
2018-12-08T06:19:30.156Z,6.10
2018-12-08T06:24:34.211Z,6.10
2018-12-08T06:29:38.509Z,6.10
2018-12-08T06:34:42.545Z,6.20
2018-12-08T06:39:46.810Z,6.20
2018-12-08T06:44:50.837Z,6.30
2018-12-08T06:49:54.895Z,6.30
2018-12-08T06:54:58.947Z,6.30
2018-12-08T07:00:03.940Z,6.30
2018-12-08T07:05:08.033Z,6.30
2018-12-08T07:10:12.156Z,6.40
2018-12-08T07:15:16.169Z,6.40
2018-12-08T07:20:20.678Z,6.40
2018-12-08T07:25:25.395Z,6.50
2018-12-08T07:30:29.451Z,6.40
2018-12-08T07:35:33.513Z,6.50
2018-12-08T07:40:37.578Z,6.50
2018-12-08T07:45:41.598Z,6.60
2018-12-08T07:50:45.649Z,6.60
2018-12-08T07:55:49.726Z,6.60
2018-12-08T08:00:53.793Z,6.60
2018-12-08T08:05:57.822Z,6.70
2018-12-08T08:11:01.879Z,6.70
2018-12-08T08:16:05.904Z,6.80
2018-12-08T08:21:09.949Z,6.90
2018-12-08T08:26:14.079Z,6.90
2018-12-08T08:31:18.167Z,6.90
2018-12-08T08:36:22.205Z,7.00
2018-12-08T08:41:26.238Z,7.00
2018-12-08T08:46:30.271Z,7.00
2018-12-08T08:51:34.302Z,7.00
2018-12-08T08:56:38.324Z,7.00
2018-12-08T09:01:42.431Z,7.10
2018-12-08T09:06:46.479Z,7.10
2018-12-08T09:11:50.601Z,7.20
2018-12-08T09:16:55.125Z,7.40
2018-12-08T09:21:59.150Z,7.30
2018-12-08T09:27:03.636Z,7.30
2018-12-08T09:32:07.755Z,7.30
2018-12-08T09:37:11.819Z,7.30
2018-12-08T09:42:16.174Z,7.30
2018-12-08T09:47:20.194Z,7.30
2018-12-08T09:52:24.843Z,7.40
2018-12-08T09:57:28.891Z,7.50
2018-12-08T10:02:32.947Z,7.50
2018-12-08T10:07:37.011Z,7.60
2018-12-08T10:12:44.980Z,7.70
2018-12-08T10:17:49.065Z,7.70
2018-12-08T10:22:53.268Z,7.80
2018-12-08T10:27:57.360Z,7.90
2018-12-08T10:33:01.492Z,7.90
2018-12-08T10:38:06.598Z,7.90
2018-12-08T10:43:10.701Z,7.90
2018-12-08T10:48:14.772Z,8.00
2018-12-08T10:53:20.181Z,7.90
2018-12-08T10:58:24.260Z,7.90
2018-12-08T11:03:30.467Z,8.10
2018-12-08T11:08:34.512Z,8.10
2018-12-08T11:13:38.676Z,8.10
2018-12-08T11:18:42.742Z,8.20
2018-12-08T11:23:46.791Z,8.30
2018-12-08T11:28:50.916Z,8.30
2018-12-08T11:33:55.038Z,8.40
2018-12-08T11:38:59.107Z,8.50
2018-12-08T11:44:03.169Z,8.60
2018-12-08T11:49:07.219Z,8.60
2018-12-08T11:54:11.293Z,8.50
2018-12-08T11:59:15.331Z,8.40
2018-12-08T12:04:19.424Z,8.40
2018-12-08T12:09:24.388Z,8.30
2018-12-08T12:14:39.673Z,8.20
2018-12-08T12:19:43.800Z,8.10
2018-12-08T12:24:47.864Z,8.00
2018-12-08T12:29:53.106Z,8.00
2018-12-08T12:34:58.850Z,8.00
2018-12-08T12:40:05.118Z,8.00
2018-12-08T12:45:10.591Z,8.00
2018-12-08T12:50:15.716Z,8.10
2018-12-08T12:55:19.772Z,8.10
2018-12-08T13:00:24.258Z,8.10
2018-12-08T13:05:28.326Z,8.20
2018-12-08T13:10:34.223Z,8.20
2018-12-08T13:15:38.254Z,8.30
2018-12-08T13:20:42.313Z,8.30
2018-12-08T13:25:46.381Z,8.30
2018-12-08T13:30:50.419Z,8.30
2018-12-08T13:35:59.256Z,8.20
2018-12-08T13:41:03.343Z,8.00
2018-12-08T13:46:07.367Z,7.90
2018-12-08T13:51:11.431Z,7.90
2018-12-08T13:56:15.515Z,7.90
2018-12-08T14:01:19.563Z,7.80
2018-12-08T14:06:24.052Z,7.90
2018-12-08T14:11:29.939Z,7.90
2018-12-08T14:16:33.948Z,7.90
2018-12-08T14:21:38.098Z,7.80
2018-12-08T14:26:42.136Z,7.80
2018-12-08T14:31:46.627Z,7.80
2018-12-08T14:36:50.669Z,7.90
2018-12-08T14:41:55.344Z,8.00
2018-12-08T14:46:59.457Z,8.00
2018-12-08T14:52:03.681Z,8.10
2018-12-08T14:57:07.840Z,8.10
2018-12-08T15:02:12.566Z,8.00
2018-12-08T15:07:17.133Z,8.10
2018-12-08T15:12:21.248Z,8.20
2018-12-08T15:17:25.445Z,8.30
2018-12-08T15:22:29.874Z,8.20
2018-12-08T15:27:33.930Z,8.30
2018-12-08T15:32:38.025Z,8.30
2018-12-08T15:37:42.949Z,8.10
2018-12-08T15:42:47.039Z,8.10
2018-12-08T15:47:52.005Z,8.10
2018-12-08T15:52:56.689Z,8.10
2018-12-08T15:58:00.854Z,8.10
2018-12-08T16:03:05.166Z,8.00
2018-12-08T16:08:09.207Z,8.00
2018-12-08T16:13:13.387Z,8.00
2018-12-08T16:18:17.501Z,8.10
2018-12-08T16:23:22.593Z,8.00
2018-12-08T16:28:26.634Z,8.10
2018-12-08T16:33:31.570Z,8.20
2018-12-08T16:38:35.772Z,8.20
2018-12-08T16:43:39.832Z,8.20
2018-12-08T16:48:43.910Z,8.20
2018-12-08T16:53:47.996Z,8.20
2018-12-08T16:58:52.060Z,8.10
2018-12-08T17:03:56.924Z,8.30
2018-12-08T17:09:01.038Z,8.20
2018-12-08T17:14:05.555Z,8.10
2018-12-08T17:19:09.586Z,8.10
2018-12-08T17:24:14.626Z,8.10
2018-12-08T17:29:18.783Z,8.10
2018-12-08T17:34:22.914Z,8.20
2018-12-08T17:39:26.965Z,8.10
2018-12-08T17:44:31.040Z,8.00
2018-12-08T17:49:35.120Z,8.00
2018-12-08T17:54:39.284Z,8.10
2018-12-08T17:59:43.417Z,8.20
2018-12-08T18:04:47.467Z,8.30
2018-12-08T18:09:51.746Z,8.30
2018-12-08T18:14:55.856Z,8.30
2018-12-08T18:20:00.190Z,8.40
2018-12-08T18:25:04.846Z,8.40
2018-12-08T18:30:09.396Z,8.40
2018-12-08T18:35:13.547Z,8.30
2018-12-08T18:40:17.611Z,8.30
2018-12-08T18:45:22.550Z,8.30
2018-12-08T18:50:26.578Z,8.30
2018-12-08T18:55:30.625Z,8.30
2018-12-08T19:00:35.595Z,8.20
2018-12-08T19:05:39.651Z,8.20
2018-12-08T19:10:43.669Z,8.10
2018-12-08T19:15:47.699Z,8.10
2018-12-08T19:20:51.879Z,8.10
2018-12-08T19:25:55.907Z,8.10
2018-12-08T19:31:00.464Z,8.00
2018-12-08T19:36:04.524Z,7.80
2018-12-08T19:41:08.617Z,7.60
2018-12-08T19:46:12.714Z,7.50
2018-12-08T19:51:16.754Z,7.50
2018-12-08T19:56:20.822Z,7.40
2018-12-08T20:01:25.004Z,7.40
2018-12-08T20:06:29.067Z,7.30
2018-12-08T20:11:33.118Z,7.30
2018-12-08T20:16:37.153Z,7.20
2018-12-08T20:21:41.182Z,7.30
2018-12-08T20:26:45.225Z,7.40
2018-12-08T20:31:49.305Z,7.40
2018-12-08T20:36:53.334Z,7.40
2018-12-08T20:41:57.370Z,7.40
2018-12-08T20:47:01.420Z,7.50
2018-12-08T20:52:05.463Z,7.60
2018-12-08T20:57:09.952Z,7.70
2018-12-08T21:02:14.013Z,7.80
2018-12-08T21:07:18.085Z,7.90
2018-12-08T21:12:22.141Z,7.90
2018-12-08T21:17:26.186Z,8.00
2018-12-08T21:22:30.217Z,8.00
2018-12-08T21:27:34.704Z,8.10
2018-12-08T21:32:38.747Z,8.20
2018-12-08T21:37:42.780Z,8.20
2018-12-08T21:42:46.815Z,8.30
2018-12-08T21:47:50.900Z,8.40
2018-12-08T21:52:54.953Z,8.40
2018-12-08T21:57:59.014Z,8.40
2018-12-08T22:03:03.092Z,8.50
2018-12-08T22:08:07.207Z,8.60
2018-12-08T22:13:11.267Z,8.60
2018-12-08T22:18:15.341Z,8.70
2018-12-08T22:23:19.398Z,8.80
2018-12-08T22:28:23.430Z,8.80
2018-12-08T22:33:27.568Z,8.70
2018-12-08T22:38:31.598Z,8.40
2018-12-08T22:43:35.671Z,8.00
2018-12-08T22:48:39.704Z,7.70
2018-12-08T22:53:43.766Z,7.50
2018-12-08T22:58:47.843Z,7.30
2018-12-08T23:03:51.910Z,7.20
2018-12-08T23:08:57.843Z,7.20
2018-12-08T23:14:05.233Z,7.10
2018-12-08T23:19:10.483Z,7.10
2018-12-08T23:24:14.534Z,7.00
2018-12-08T23:29:18.563Z,7.00
2018-12-08T23:34:23.383Z,7.00
2018-12-08T23:39:28.812Z,7.00
2018-12-08T23:44:32.911Z,7.10
2018-12-08T23:49:37.083Z,7.20
2018-12-08T23:54:41.247Z,7.40
2018-12-08T23:59:45.319Z,7.50
